sensor_id;sensor_type;location;lat;lon;timestamp;temperature;humidity
12512;DHT22;6321;53.798;10.382;2022-07-10T01:30:19;13.10;99.90
12512;DHT22;6321;53.798;10.382;2022-07-10T01:32:46;13.20;99.90
12512;DHT22;6321;53.798;10.382;2022-07-10T01:35:12;13.20;99.90
12512;DHT22;6321;53.798;10.382;2022-07-10T01:37:41;13.40;99.90
12512;DHT22;6321;53.798;10.382;2022-07-10T01:40:08;13.20;99.90
12512;DHT22;6321;53.798;10.382;2022-07-10T01:42:34;13.20;99.90
12512;DHT22;6321;53.798;10.382;2022-07-10T01:44:59;13.10;99.90
12512;DHT22;6321;53.798;10.382;2022-07-10T01:47:25;13.40;99.90
12512;DHT22;6321;53.798;10.382;2022-07-10T01:49:53;13.10;99.90
12512;DHT22;6321;53.798;10.382;2022-07-10T01:52:19;13.10;99.90
12512;DHT22;6321;53.798;10.382;2022-07-10T01:54:45;13.00;99.90
12512;DHT22;6321;53.798;10.382;2022-07-10T01:57:11;13.20;99.90
12512;DHT22;6321;53.798;10.382;2022-07-10T01:59:36;13.00;99.90
12512;DHT22;6321;53.798;10.382;2022-07-10T02:02:02;13.10;99.90
12512;DHT22;6321;53.798;10.382;2022-07-10T02:04:27;13.10;99.90
12512;DHT22;6321;53.798;10.382;2022-07-10T02:36:44;13.20;99.90
12512;DHT22;6321;53.798;10.382;2022-07-10T02:39:09;13.20;99.90
12512;DHT22;6321;53.798;10.382;2022-07-10T02:41:35;13.20;99.90
12512;DHT22;6321;53.798;10.382;2022-07-10T02:44:04;13.20;99.90
12512;DHT22;6321;53.798;10.382;2022-07-10T02:46:29;13.20;99.90
12512;DHT22;6321;53.798;10.382;2022-07-10T02:48:55;13.20;99.90
12512;DHT22;6321;53.798;10.382;2022-07-10T02:51:21;13.20;99.90
12512;DHT22;6321;53.798;10.382;2022-07-10T02:53:47;13.30;99.90
12512;DHT22;6321;53.798;10.382;2022-07-10T02:56:13;13.20;99.90
12512;DHT22;6321;53.798;10.382;2022-07-10T02:58:38;13.20;99.90
12512;DHT22;6321;53.798;10.382;2022-07-10T03:03:33;13.20;99.90
12512;DHT22;6321;53.798;10.382;2022-07-10T03:05:59;13.10;99.90
12512;DHT22;6321;53.798;10.382;2022-07-10T03:08:24;13.40;99.90
12512;DHT22;6321;53.798;10.382;2022-07-10T03:10:50;13.30;99.90
12512;DHT22;6321;53.798;10.382;2022-07-10T03:13:19;13.20;99.90
12512;DHT22;6321;53.798;10.382;2022-07-10T03:15:45;13.30;99.90
12512;DHT22;6321;53.798;10.382;2022-07-10T03:18:10;13.50;99.90
12512;DHT22;6321;53.798;10.382;2022-07-10T03:20:36;13.30;99.90
12512;DHT22;6321;53.798;10.382;2022-07-10T03:23:01;13.30;99.90
12512;DHT22;6321;53.798;10.382;2022-07-10T03:25:27;13.40;99.90
12512;DHT22;6321;53.798;10.382;2022-07-10T03:27:52;13.40;99.90
12512;DHT22;6321;53.798;10.382;2022-07-10T03:30:18;13.60;99.90
12512;DHT22;6321;53.798;10.382;2022-07-10T03:32:45;13.40;99.90
12512;DHT22;6321;53.798;10.382;2022-07-10T03:35:10;13.40;99.90
12512;DHT22;6321;53.798;10.382;2022-07-10T03:37:36;13.30;99.90
12512;DHT22;6321;53.798;10.382;2022-07-10T03:40:01;13.40;99.90
12512;DHT22;6321;53.798;10.382;2022-07-10T03:42:27;13.40;99.90
12512;DHT22;6321;53.798;10.382;2022-07-10T03:44:52;13.60;99.90
12512;DHT22;6321;53.798;10.382;2022-07-10T03:47:18;13.50;99.90
12512;DHT22;6321;53.798;10.382;2022-07-10T03:49:43;13.40;99.90
12512;DHT22;6321;53.798;10.382;2022-07-10T03:52:09;13.30;99.90
12512;DHT22;6321;53.798;10.382;2022-07-10T03:54:34;13.40;99.90
12512;DHT22;6321;53.798;10.382;2022-07-10T03:57:00;13.30;99.90
12512;DHT22;6321;53.798;10.382;2022-07-10T03:59:44;13.20;99.90
12512;DHT22;6321;53.798;10.382;2022-07-10T04:02:10;13.20;99.90
12512;DHT22;6321;53.798;10.382;2022-07-10T04:04:36;13.30;99.90
12512;DHT22;6321;53.798;10.382;2022-07-10T04:07:02;13.30;99.90
12512;DHT22;6321;53.798;10.382;2022-07-10T04:09:29;13.50;99.90
12512;DHT22;6321;53.798;10.382;2022-07-10T04:11:54;13.40;99.90
12512;DHT22;6321;53.798;10.382;2022-07-10T04:14:20;13.40;99.90
12512;DHT22;6321;53.798;10.382;2022-07-10T04:16:45;13.30;99.90
12512;DHT22;6321;53.798;10.382;2022-07-10T04:19:11;13.40;99.90
12512;DHT22;6321;53.798;10.382;2022-07-10T04:21:36;13.40;99.90
12512;DHT22;6321;53.798;10.382;2022-07-10T04:24:02;13.40;99.90
12512;DHT22;6321;53.798;10.382;2022-07-10T04:26:28;13.40;99.90
12512;DHT22;6321;53.798;10.382;2022-07-10T04:28:53;13.60;99.90
12512;DHT22;6321;53.798;10.382;2022-07-10T04:31:19;13.70;99.90
12512;DHT22;6321;53.798;10.382;2022-07-10T04:33:44;13.60;99.90
12512;DHT22;6321;53.798;10.382;2022-07-10T04:36:10;13.50;99.90
12512;DHT22;6321;53.798;10.382;2022-07-10T04:38:35;13.70;99.90
12512;DHT22;6321;53.798;10.382;2022-07-10T04:41:01;13.80;99.90
12512;DHT22;6321;53.798;10.382;2022-07-10T04:43:26;14.00;99.90
12512;DHT22;6321;53.798;10.382;2022-07-10T04:45:52;13.90;99.90
12512;DHT22;6321;53.798;10.382;2022-07-10T04:48:17;14.10;99.90
12512;DHT22;6321;53.798;10.382;2022-07-10T04:50:43;14.20;99.90
12512;DHT22;6321;53.798;10.382;2022-07-10T04:53:08;14.30;99.90
12512;DHT22;6321;53.798;10.382;2022-07-10T04:55:34;14.30;99.90
12512;DHT22;6321;53.798;10.382;2022-07-10T04:57:59;14.30;99.90
12512;DHT22;6321;53.798;10.382;2022-07-10T05:00:25;14.50;99.90
12512;DHT22;6321;53.798;10.382;2022-07-10T05:02:50;14.60;99.90
12512;DHT22;6321;53.798;10.382;2022-07-10T05:05:16;14.60;99.90
12512;DHT22;6321;53.798;10.382;2022-07-10T05:07:41;14.60;99.90
12512;DHT22;6321;53.798;10.382;2022-07-10T05:10:07;14.70;99.90
12512;DHT22;6321;53.798;10.382;2022-07-10T05:12:33;14.80;99.90
12512;DHT22;6321;53.798;10.382;2022-07-10T05:14:58;14.80;99.90
12512;DHT22;6321;53.798;10.382;2022-07-10T05:17:25;14.80;99.90
12512;DHT22;6321;53.798;10.382;2022-07-10T05:19:52;15.10;99.90
12512;DHT22;6321;53.798;10.382;2022-07-10T05:24:45;15.10;99.90
12512;DHT22;6321;53.798;10.382;2022-07-10T05:27:11;15.10;99.90
12512;DHT22;6321;53.798;10.382;2022-07-10T05:29:36;15.10;99.90
12512;DHT22;6321;53.798;10.382;2022-07-10T05:32:02;15.50;99.90
12512;DHT22;6321;53.798;10.382;2022-07-10T05:34:28;15.30;99.90
12512;DHT22;6321;53.798;10.382;2022-07-10T05:36:53;15.30;99.90
12512;DHT22;6321;53.798;10.382;2022-07-10T05:39:19;15.00;99.90
12512;DHT22;6321;53.798;10.382;2022-07-10T05:41:44;15.20;99.90
12512;DHT22;6321;53.798;10.382;2022-07-10T05:44:10;15.20;99.90
12512;DHT22;6321;53.798;10.382;2022-07-10T05:46:35;15.20;99.90
12512;DHT22;6321;53.798;10.382;2022-07-10T05:49:01;15.40;99.90
12512;DHT22;6321;53.798;10.382;2022-07-10T05:51:26;15.30;99.90
12512;DHT22;6321;53.798;10.382;2022-07-10T05:53:52;15.60;99.90
12512;DHT22;6321;53.798;10.382;2022-07-10T05:56:17;15.50;99.90
12512;DHT22;6321;53.798;10.382;2022-07-10T05:58:43;15.60;99.90
12512;DHT22;6321;53.798;10.382;2022-07-10T06:01:08;15.80;99.90
12512;DHT22;6321;53.798;10.382;2022-07-10T06:03:34;15.90;99.90
12512;DHT22;6321;53.798;10.382;2022-07-10T06:06:00;16.10;99.90
12512;DHT22;6321;53.798;10.382;2022-07-10T06:08:26;16.30;99.90
12512;DHT22;6321;53.798;10.382;2022-07-10T06:10:51;16.20;99.90
12512;DHT22;6321;53.798;10.382;2022-07-10T06:13:17;16.20;99.90
12512;DHT22;6321;53.798;10.382;2022-07-10T06:37:45;16.00;99.90
12512;DHT22;6321;53.798;10.382;2022-07-10T06:40:14;16.00;99.90
12512;DHT22;6321;53.798;10.382;2022-07-10T06:42:40;16.00;99.90
12512;DHT22;6321;53.798;10.382;2022-07-10T06:45:06;15.90;99.90
12512;DHT22;6321;53.798;10.382;2022-07-10T06:47:32;16.00;99.90
12512;DHT22;6321;53.798;10.382;2022-07-10T06:50:16;15.90;99.90
12512;DHT22;6321;53.798;10.382;2022-07-10T06:52:41;15.80;99.90
12512;DHT22;6321;53.798;10.382;2022-07-10T06:55:07;15.70;99.90
12512;DHT22;6321;53.798;10.382;2022-07-10T06:57:33;15.90;99.90
12512;DHT22;6321;53.798;10.382;2022-07-10T06:59:59;15.80;99.90
12512;DHT22;6321;53.798;10.382;2022-07-10T07:02:24;15.70;99.90
12512;DHT22;6321;53.798;10.382;2022-07-10T07:04:50;15.60;99.90
12512;DHT22;6321;53.798;10.382;2022-07-10T07:07:16;15.60;99.90
12512;DHT22;6321;53.798;10.382;2022-07-10T07:09:41;15.70;99.90
12512;DHT22;6321;53.798;10.382;2022-07-10T07:12:08;15.80;99.90
12512;DHT22;6321;53.798;10.382;2022-07-10T07:14:34;15.90;99.90
12512;DHT22;6321;53.798;10.382;2022-07-10T07:17:00;16.00;99.90
12512;DHT22;6321;53.798;10.382;2022-07-10T07:19:30;16.10;99.90
12512;DHT22;6321;53.798;10.382;2022-07-10T07:22:22;16.00;99.90
12512;DHT22;6321;53.798;10.382;2022-07-10T07:25:07;16.10;99.90
12512;DHT22;6321;53.798;10.382;2022-07-10T07:27:34;16.20;99.90
12512;DHT22;6321;53.798;10.382;2022-07-10T07:30:04;16.00;99.90
12512;DHT22;6321;53.798;10.382;2022-07-10T07:32:31;16.20;99.90
12512;DHT22;6321;53.798;10.382;2022-07-10T07:34:57;16.00;99.90
12512;DHT22;6321;53.798;10.382;2022-07-10T07:37:22;16.00;99.90
12512;DHT22;6321;53.798;10.382;2022-07-10T07:39:49;16.20;99.90
12512;DHT22;6321;53.798;10.382;2022-07-10T07:42:14;16.30;99.90
12512;DHT22;6321;53.798;10.382;2022-07-10T07:44:40;16.30;99.90
12512;DHT22;6321;53.798;10.382;2022-07-10T07:47:05;16.30;99.90
12512;DHT22;6321;53.798;10.382;2022-07-10T07:49:31;16.50;99.90
12512;DHT22;6321;53.798;10.382;2022-07-10T07:51:57;16.40;99.90
12512;DHT22;6321;53.798;10.382;2022-07-10T07:54:22;16.50;99.90
12512;DHT22;6321;53.798;10.382;2022-07-10T07:56:48;17.00;99.90
12512;DHT22;6321;53.798;10.382;2022-07-10T07:59:13;17.20;99.90
12512;DHT22;6321;53.798;10.382;2022-07-10T08:01:39;17.20;99.90
12512;DHT22;6321;53.798;10.382;2022-07-10T08:04:04;17.50;99.90
12512;DHT22;6321;53.798;10.382;2022-07-10T08:06:30;17.20;99.90
12512;DHT22;6321;53.798;10.382;2022-07-10T08:08:55;17.40;99.90
12512;DHT22;6321;53.798;10.382;2022-07-10T08:11:21;17.10;99.90
12512;DHT22;6321;53.798;10.382;2022-07-10T08:13:48;17.00;99.90
12512;DHT22;6321;53.798;10.382;2022-07-10T08:16:13;17.20;99.90
12512;DHT22;6321;53.798;10.382;2022-07-10T08:18:39;17.20;99.90
12512;DHT22;6321;53.798;10.382;2022-07-10T08:21:05;17.90;99.90
12512;DHT22;6321;53.798;10.382;2022-07-10T08:23:30;17.60;99.90
12512;DHT22;6321;53.798;10.382;2022-07-10T08:25:56;17.80;99.90
12512;DHT22;6321;53.798;10.382;2022-07-10T08:28:21;17.70;99.90
12512;DHT22;6321;53.798;10.382;2022-07-10T08:30:47;17.60;99.90
12512;DHT22;6321;53.798;10.382;2022-07-10T08:33:12;17.50;99.90
12512;DHT22;6321;53.798;10.382;2022-07-10T08:35:38;17.90;99.90
12512;DHT22;6321;53.798;10.382;2022-07-10T08:38:03;17.90;99.90
12512;DHT22;6321;53.798;10.382;2022-07-10T08:40:36;17.90;99.90
12512;DHT22;6321;53.798;10.382;2022-07-10T08:43:05;18.20;99.90
12512;DHT22;6321;53.798;10.382;2022-07-10T08:45:32;18.20;99.90
12512;DHT22;6321;53.798;10.382;2022-07-10T08:48:02;18.70;99.90
12512;DHT22;6321;53.798;10.382;2022-07-10T08:50:37;18.80;99.90
12512;DHT22;6321;53.798;10.382;2022-07-10T08:53:12;19.00;99.90
12512;DHT22;6321;53.798;10.382;2022-07-10T08:55:39;19.20;99.90
12512;DHT22;6321;53.798;10.382;2022-07-10T08:58:07;19.40;99.90
12512;DHT22;6321;53.798;10.382;2022-07-10T09:00:33;19.10;99.90
12512;DHT22;6321;53.798;10.382;2022-07-10T09:02:58;19.10;99.90
12512;DHT22;6321;53.798;10.382;2022-07-10T09:05:25;18.70;99.90
12512;DHT22;6321;53.798;10.382;2022-07-10T09:07:51;18.70;99.90
12512;DHT22;6321;53.798;10.382;2022-07-10T09:10:20;18.70;99.90
12512;DHT22;6321;53.798;10.382;2022-07-10T09:15:22;18.70;99.90
12512;DHT22;6321;53.798;10.382;2022-07-10T09:20:39;18.90;99.90
12512;DHT22;6321;53.798;10.382;2022-07-10T09:23:22;19.10;99.90
12512;DHT22;6321;53.798;10.382;2022-07-10T09:25:49;19.20;99.90
12512;DHT22;6321;53.798;10.382;2022-07-10T09:28:22;18.80;99.90
12512;DHT22;6321;53.798;10.382;2022-07-10T09:30:49;18.90;99.90
12512;DHT22;6321;53.798;10.382;2022-07-10T09:36:15;19.40;99.90
12512;DHT22;6321;53.798;10.382;2022-07-10T09:41:24;19.40;99.90
12512;DHT22;6321;53.798;10.382;2022-07-10T09:43:53;19.60;99.90
12512;DHT22;6321;53.798;10.382;2022-07-10T09:46:27;19.70;99.90
12512;DHT22;6321;53.798;10.382;2022-07-10T09:49:12;19.60;99.90
12512;DHT22;6321;53.798;10.382;2022-07-10T09:51:47;19.70;99.90
12512;DHT22;6321;53.798;10.382;2022-07-10T09:54:12;19.40;99.90
12512;DHT22;6321;53.798;10.382;2022-07-10T09:56:43;19.90;99.90
12512;DHT22;6321;53.798;10.382;2022-07-10T09:59:14;20.40;99.90
12512;DHT22;6321;53.798;10.382;2022-07-10T10:04:11;20.00;99.90
12512;DHT22;6321;53.798;10.382;2022-07-10T10:06:39;20.10;99.90
12512;DHT22;6321;53.798;10.382;2022-07-10T10:09:26;20.30;99.90
12512;DHT22;6321;53.798;10.382;2022-07-10T10:12:01;20.40;99.90
12512;DHT22;6321;53.798;10.382;2022-07-10T10:14:28;20.30;99.90
12512;DHT22;6321;53.798;10.382;2022-07-10T10:16:55;20.50;99.90
12512;DHT22;6321;53.798;10.382;2022-07-10T10:19:23;20.60;99.90
12512;DHT22;6321;53.798;10.382;2022-07-10T10:22:08;20.30;99.90
12512;DHT22;6321;53.798;10.382;2022-07-10T10:24:34;20.50;99.90
12512;DHT22;6321;53.798;10.382;2022-07-10T10:27:00;20.60;99.90
12512;DHT22;6321;53.798;10.382;2022-07-10T10:29:26;21.00;99.90
12512;DHT22;6321;53.798;10.382;2022-07-10T10:31:53;21.20;99.90
12512;DHT22;6321;53.798;10.382;2022-07-10T10:39:56;20.60;99.90
12512;DHT22;6321;53.798;10.382;2022-07-10T10:48:05;20.00;99.90
12512;DHT22;6321;53.798;10.382;2022-07-10T10:50:38;20.00;99.90
12512;DHT22;6321;53.798;10.382;2022-07-10T10:53:11;20.00;99.90
12512;DHT22;6321;53.798;10.382;2022-07-10T10:55:37;19.50;99.90
12512;DHT22;6321;53.798;10.382;2022-07-10T10:58:15;19.60;99.90
12512;DHT22;6321;53.798;10.382;2022-07-10T11:00:41;19.70;99.90
12512;DHT22;6321;53.798;10.382;2022-07-10T11:03:21;19.80;99.90
12512;DHT22;6321;53.798;10.382;2022-07-10T11:05:48;20.00;99.90
12512;DHT22;6321;53.798;10.382;2022-07-10T11:08:14;19.90;99.90
12512;DHT22;6321;53.798;10.382;2022-07-10T11:10:59;19.70;99.90
12512;DHT22;6321;53.798;10.382;2022-07-10T11:13:27;19.70;99.90
12512;DHT22;6321;53.798;10.382;2022-07-10T11:15:54;19.90;99.90
12512;DHT22;6321;53.798;10.382;2022-07-10T11:18:21;19.50;99.90
12512;DHT22;6321;53.798;10.382;2022-07-10T11:20:51;19.70;99.90
12512;DHT22;6321;53.798;10.382;2022-07-10T11:26:43;19.50;99.90
12512;DHT22;6321;53.798;10.382;2022-07-10T11:29:18;19.70;99.90
12512;DHT22;6321;53.798;10.382;2022-07-10T11:31:52;19.80;99.90
12512;DHT22;6321;53.798;10.382;2022-07-10T11:34:18;19.90;99.90
12512;DHT22;6321;53.798;10.382;2022-07-10T11:36:43;19.90;99.90
12512;DHT22;6321;53.798;10.382;2022-07-10T11:39:09;19.80;99.90
12512;DHT22;6321;53.798;10.382;2022-07-10T11:41:43;19.60;99.90
12512;DHT22;6321;53.798;10.382;2022-07-10T11:44:14;20.30;99.90
12512;DHT22;6321;53.798;10.382;2022-07-10T11:46:41;19.40;99.90
12512;DHT22;6321;53.798;10.382;2022-07-10T11:49:09;19.50;99.90
12512;DHT22;6321;53.798;10.382;2022-07-10T11:51:37;19.30;99.90
12512;DHT22;6321;53.798;10.382;2022-07-10T11:54:06;19.30;99.90
12512;DHT22;6321;53.798;10.382;2022-07-10T11:56:34;19.40;99.90
12512;DHT22;6321;53.798;10.382;2022-07-10T11:59:05;19.40;99.90
12512;DHT22;6321;53.798;10.382;2022-07-10T12:01:33;19.50;99.90
12512;DHT22;6321;53.798;10.382;2022-07-10T12:04:06;19.30;99.90
12512;DHT22;6321;53.798;10.382;2022-07-10T12:06:33;19.40;99.90
12512;DHT22;6321;53.798;10.382;2022-07-10T12:09:08;19.10;99.90
12512;DHT22;6321;53.798;10.382;2022-07-10T12:11:34;19.10;99.90
12512;DHT22;6321;53.798;10.382;2022-07-10T12:16:40;19.00;99.90
12512;DHT22;6321;53.798;10.382;2022-07-10T12:19:08;19.00;99.90
12512;DHT22;6321;53.798;10.382;2022-07-10T12:21:34;19.00;99.90
12512;DHT22;6321;53.798;10.382;2022-07-10T12:24:00;19.00;99.90
12512;DHT22;6321;53.798;10.382;2022-07-10T12:26:38;19.00;99.90
12512;DHT22;6321;53.798;10.382;2022-07-10T12:29:04;19.20;99.90
12512;DHT22;6321;53.798;10.382;2022-07-10T12:31:31;18.90;99.90
12512;DHT22;6321;53.798;10.382;2022-07-10T12:33:59;19.20;99.90
12512;DHT22;6321;53.798;10.382;2022-07-10T12:36:48;18.90;99.90
12512;DHT22;6321;53.798;10.382;2022-07-10T12:39:20;18.90;99.90
12512;DHT22;6321;53.798;10.382;2022-07-10T12:41:59;18.80;99.90
12512;DHT22;6321;53.798;10.382;2022-07-10T12:47:06;19.20;99.90
12512;DHT22;6321;53.798;10.382;2022-07-10T12:50:02;19.20;99.90
12512;DHT22;6321;53.798;10.382;2022-07-10T12:55:16;19.30;99.90
12512;DHT22;6321;53.798;10.382;2022-07-10T12:57:58;19.50;99.90
12512;DHT22;6321;53.798;10.382;2022-07-10T13:02:57;19.30;99.90
12512;DHT22;6321;53.798;10.382;2022-07-10T13:05:31;19.30;99.90
12512;DHT22;6321;53.798;10.382;2022-07-10T13:08:18;19.40;99.90
12512;DHT22;6321;53.798;10.382;2022-07-10T13:10:56;19.40;99.90
12512;DHT22;6321;53.798;10.382;2022-07-10T13:13:24;19.70;99.90
12512;DHT22;6321;53.798;10.382;2022-07-10T13:15:49;19.70;99.90
12512;DHT22;6321;53.798;10.382;2022-07-10T13:18:21;19.60;99.90
12512;DHT22;6321;53.798;10.382;2022-07-10T13:20:48;19.40;99.90
12512;DHT22;6321;53.798;10.382;2022-07-10T13:23:15;19.20;99.90
12512;DHT22;6321;53.798;10.382;2022-07-10T13:25:41;19.00;99.90
12512;DHT22;6321;53.798;10.382;2022-07-10T13:28:08;19.10;99.90
12512;DHT22;6321;53.798;10.382;2022-07-10T13:30:34;19.00;99.90
12512;DHT22;6321;53.798;10.382;2022-07-10T13:33:00;19.50;99.90
12512;DHT22;6321;53.798;10.382;2022-07-10T13:35:31;19.70;99.90
12512;DHT22;6321;53.798;10.382;2022-07-10T13:37:59;20.00;99.90
12512;DHT22;6321;53.798;10.382;2022-07-10T13:40:27;20.30;99.90
12512;DHT22;6321;53.798;10.382;2022-07-10T13:42:53;20.50;99.90
12512;DHT22;6321;53.798;10.382;2022-07-10T13:45:19;20.50;99.90
12512;DHT22;6321;53.798;10.382;2022-07-10T13:47:45;20.40;99.90
12512;DHT22;6321;53.798;10.382;2022-07-10T13:50:10;20.60;99.90
12512;DHT22;6321;53.798;10.382;2022-07-10T13:52:36;20.70;99.90
12512;DHT22;6321;53.798;10.382;2022-07-10T13:55:01;20.70;99.90
12512;DHT22;6321;53.798;10.382;2022-07-10T13:57:29;20.80;99.90
12512;DHT22;6321;53.798;10.382;2022-07-10T13:59:55;20.70;99.90
12512;DHT22;6321;53.798;10.382;2022-07-10T14:02:21;20.70;99.90
12512;DHT22;6321;53.798;10.382;2022-07-10T14:04:46;20.70;99.90
12512;DHT22;6321;53.798;10.382;2022-07-10T14:07:12;21.10;99.90
12512;DHT22;6321;53.798;10.382;2022-07-10T14:09:37;21.30;99.90
12512;DHT22;6321;53.798;10.382;2022-07-10T14:12:03;21.80;99.90
12512;DHT22;6321;53.798;10.382;2022-07-10T14:14:29;22.00;99.90
12512;DHT22;6321;53.798;10.382;2022-07-10T14:16:55;22.00;99.90
12512;DHT22;6321;53.798;10.382;2022-07-10T14:19:20;22.20;99.90
12512;DHT22;6321;53.798;10.382;2022-07-10T14:21:46;22.20;99.90
12512;DHT22;6321;53.798;10.382;2022-07-10T14:24:11;23.10;99.90
12512;DHT22;6321;53.798;10.382;2022-07-10T14:26:37;23.30;99.90
12512;DHT22;6321;53.798;10.382;2022-07-10T14:29:03;22.70;99.90
12512;DHT22;6321;53.798;10.382;2022-07-10T14:31:29;22.50;99.90
12512;DHT22;6321;53.798;10.382;2022-07-10T14:33:55;22.40;99.90
12512;DHT22;6321;53.798;10.382;2022-07-10T14:36:20;22.20;99.90
12512;DHT22;6321;53.798;10.382;2022-07-10T14:38:48;21.70;99.90
12512;DHT22;6321;53.798;10.382;2022-07-10T14:41:13;21.60;99.90
12512;DHT22;6321;53.798;10.382;2022-07-10T14:43:39;21.70;99.90
12512;DHT22;6321;53.798;10.382;2022-07-10T14:46:05;21.60;99.90
12512;DHT22;6321;53.798;10.382;2022-07-10T14:48:31;21.30;99.90
12512;DHT22;6321;53.798;10.382;2022-07-10T14:50:57;21.20;99.90
12512;DHT22;6321;53.798;10.382;2022-07-10T14:53:23;21.10;99.90
12512;DHT22;6321;53.798;10.382;2022-07-10T14:55:49;21.20;99.90
12512;DHT22;6321;53.798;10.382;2022-07-10T14:58:14;21.90;99.90
12512;DHT22;6321;53.798;10.382;2022-07-10T15:00:40;21.60;99.90
12512;DHT22;6321;53.798;10.382;2022-07-10T15:03:06;21.70;99.90
12512;DHT22;6321;53.798;10.382;2022-07-10T15:05:32;22.00;99.90
12512;DHT22;6321;53.798;10.382;2022-07-10T15:07:59;21.60;99.90
12512;DHT22;6321;53.798;10.382;2022-07-10T15:10:25;21.50;99.90
12512;DHT22;6321;53.798;10.382;2022-07-10T15:12:51;21.40;99.90
12512;DHT22;6321;53.798;10.382;2022-07-10T15:15:17;21.10;99.90
12512;DHT22;6321;53.798;10.382;2022-07-10T15:17:42;21.10;99.90
12512;DHT22;6321;53.798;10.382;2022-07-10T15:20:10;21.20;99.90
12512;DHT22;6321;53.798;10.382;2022-07-10T15:22:35;21.50;99.90
12512;DHT22;6321;53.798;10.382;2022-07-10T15:25:01;21.40;99.90
12512;DHT22;6321;53.798;10.382;2022-07-10T15:27:30;21.80;99.90
12512;DHT22;6321;53.798;10.382;2022-07-10T15:29:57;21.70;99.90
12512;DHT22;6321;53.798;10.382;2022-07-10T15:32:23;22.10;99.90
12512;DHT22;6321;53.798;10.382;2022-07-10T15:34:49;22.10;99.90
12512;DHT22;6321;53.798;10.382;2022-07-10T15:37:16;22.30;99.90
12512;DHT22;6321;53.798;10.382;2022-07-10T15:39:41;22.50;99.90
12512;DHT22;6321;53.798;10.382;2022-07-10T15:42:08;22.20;99.90
12512;DHT22;6321;53.798;10.382;2022-07-10T15:44:33;22.40;99.90
12512;DHT22;6321;53.798;10.382;2022-07-10T15:46:59;22.20;99.90
12512;DHT22;6321;53.798;10.382;2022-07-10T15:49:24;22.30;99.90
12512;DHT22;6321;53.798;10.382;2022-07-10T15:51:50;21.90;99.90
12512;DHT22;6321;53.798;10.382;2022-07-10T15:54:15;21.80;99.90
12512;DHT22;6321;53.798;10.382;2022-07-10T15:56:43;21.70;99.90
12512;DHT22;6321;53.798;10.382;2022-07-10T15:59:10;21.70;99.90
12512;DHT22;6321;53.798;10.382;2022-07-10T16:01:35;21.70;99.90
12512;DHT22;6321;53.798;10.382;2022-07-10T16:04:01;21.80;99.90
12512;DHT22;6321;53.798;10.382;2022-07-10T16:06:27;22.00;99.90
12512;DHT22;6321;53.798;10.382;2022-07-10T16:08:53;21.90;99.90
12512;DHT22;6321;53.798;10.382;2022-07-10T16:11:19;21.70;99.90
12512;DHT22;6321;53.798;10.382;2022-07-10T16:13:45;21.80;99.90
12512;DHT22;6321;53.798;10.382;2022-07-10T16:16:10;21.60;99.90
12512;DHT22;6321;53.798;10.382;2022-07-10T16:18:36;21.80;99.90
12512;DHT22;6321;53.798;10.382;2022-07-10T16:21:02;21.70;99.90
12512;DHT22;6321;53.798;10.382;2022-07-10T16:23:28;21.70;99.90
12512;DHT22;6321;53.798;10.382;2022-07-10T16:25:54;21.40;99.90
12512;DHT22;6321;53.798;10.382;2022-07-10T16:28:33;21.50;99.90
12512;DHT22;6321;53.798;10.382;2022-07-10T16:30:59;21.60;99.90
12512;DHT22;6321;53.798;10.382;2022-07-10T16:33:24;21.50;99.90
12512;DHT22;6321;53.798;10.382;2022-07-10T16:35:50;21.60;99.90
12512;DHT22;6321;53.798;10.382;2022-07-10T16:38:16;21.50;99.90
12512;DHT22;6321;53.798;10.382;2022-07-10T16:40:45;21.20;99.90
12512;DHT22;6321;53.798;10.382;2022-07-10T16:43:12;21.40;99.90
12512;DHT22;6321;53.798;10.382;2022-07-10T16:45:42;21.40;99.90
12512;DHT22;6321;53.798;10.382;2022-07-10T16:48:08;21.30;99.90
12512;DHT22;6321;53.798;10.382;2022-07-10T16:50:34;21.30;99.90
12512;DHT22;6321;53.798;10.382;2022-07-10T16:53:00;21.40;99.90
12512;DHT22;6321;53.798;10.382;2022-07-10T16:55:26;21.20;99.90
12512;DHT22;6321;53.798;10.382;2022-07-10T16:57:52;21.40;99.90
12512;DHT22;6321;53.798;10.382;2022-07-10T17:00:18;20.90;99.90
12512;DHT22;6321;53.798;10.382;2022-07-10T17:02:44;21.00;99.90
12512;DHT22;6321;53.798;10.382;2022-07-10T17:05:10;21.10;99.90
12512;DHT22;6321;53.798;10.382;2022-07-10T17:07:40;21.40;99.90
12512;DHT22;6321;53.798;10.382;2022-07-10T17:10:07;21.20;99.90
12512;DHT22;6321;53.798;10.382;2022-07-10T17:12:33;21.50;99.90
12512;DHT22;6321;53.798;10.382;2022-07-10T17:14:59;21.40;99.90
12512;DHT22;6321;53.798;10.382;2022-07-10T17:17:26;21.40;99.90
12512;DHT22;6321;53.798;10.382;2022-07-10T17:19:52;21.40;99.90
12512;DHT22;6321;53.798;10.382;2022-07-10T17:22:19;21.10;99.90
12512;DHT22;6321;53.798;10.382;2022-07-10T17:24:44;21.10;99.90
12512;DHT22;6321;53.798;10.382;2022-07-10T17:27:10;21.10;99.90
12512;DHT22;6321;53.798;10.382;2022-07-10T17:29:37;21.50;99.90
12512;DHT22;6321;53.798;10.382;2022-07-10T17:32:03;21.00;99.90
12512;DHT22;6321;53.798;10.382;2022-07-10T17:34:29;21.10;99.90
12512;DHT22;6321;53.798;10.382;2022-07-10T17:36:55;20.90;99.90
12512;DHT22;6321;53.798;10.382;2022-07-10T17:39:20;20.80;99.90
12512;DHT22;6321;53.798;10.382;2022-07-10T17:41:47;21.20;99.90
12512;DHT22;6321;53.798;10.382;2022-07-10T17:44:12;21.20;99.90
12512;DHT22;6321;53.798;10.382;2022-07-10T17:46:38;20.70;99.90
12512;DHT22;6321;53.798;10.382;2022-07-10T17:49:04;20.60;99.90
12512;DHT22;6321;53.798;10.382;2022-07-10T17:51:29;20.60;99.90
12512;DHT22;6321;53.798;10.382;2022-07-10T17:53:55;20.30;99.90
12512;DHT22;6321;53.798;10.382;2022-07-10T17:56:21;20.20;99.90
12512;DHT22;6321;53.798;10.382;2022-07-10T17:58:50;20.40;99.90
12512;DHT22;6321;53.798;10.382;2022-07-10T18:01:16;20.40;99.90
12512;DHT22;6321;53.798;10.382;2022-07-10T18:03:42;20.20;99.90
12512;DHT22;6321;53.798;10.382;2022-07-10T18:06:08;20.60;99.90
12512;DHT22;6321;53.798;10.382;2022-07-10T18:08:34;20.20;99.90
12512;DHT22;6321;53.798;10.382;2022-07-10T18:11:00;20.70;99.90
12512;DHT22;6321;53.798;10.382;2022-07-10T18:13:26;19.80;99.90
12512;DHT22;6321;53.798;10.382;2022-07-10T18:15:52;19.60;99.90
12512;DHT22;6321;53.798;10.382;2022-07-10T18:18:18;19.50;99.90
12512;DHT22;6321;53.798;10.382;2022-07-10T18:20:43;19.60;99.90
12512;DHT22;6321;53.798;10.382;2022-07-10T18:23:09;19.40;99.90
12512;DHT22;6321;53.798;10.382;2022-07-10T18:25:35;20.00;99.90
12512;DHT22;6321;53.798;10.382;2022-07-10T18:28:02;19.30;99.90
12512;DHT22;6321;53.798;10.382;2022-07-10T18:30:27;19.30;99.90
12512;DHT22;6321;53.798;10.382;2022-07-10T18:35:38;19.20;99.90
12512;DHT22;6321;53.798;10.382;2022-07-10T18:38:03;19.50;99.90